createdAt,value
2014-09-18T09:11:46.673Z,463
2014-09-18T09:18:47.234Z,400
2014-09-18T09:27:47.894Z,353
2014-09-18T09:35:48.501Z,332
2014-09-18T09:43:49.111Z,324
2014-09-18T09:52:49.768Z,310
2014-09-18T09:59:50.330Z,302
2014-09-18T10:07:50.923Z,292
2014-09-18T10:15:51.532Z,288
2014-09-18T10:21:52.029Z,290
2014-09-18T10:28:52.587Z,285
2014-09-18T10:35:53.149Z,285
2014-09-18T10:44:53.791Z,285
2014-09-18T10:53:54.449Z,285
2014-09-18T11:01:55.059Z,292
2014-09-18T11:10:55.717Z,298
2014-09-18T11:17:56.276Z,295
2014-09-18T11:23:56.772Z,294
2014-09-18T11:30:57.333Z,293
2014-09-18T11:39:57.990Z,289
2014-09-18T11:48:58.649Z,288
2014-09-18T11:57:59.307Z,281
2014-09-18T12:06:59.963Z,276
2014-09-18T12:16:00.622Z,277
2014-09-18T12:25:01.279Z,280
2014-09-18T12:33:01.889Z,279
2014-09-18T12:41:02.481Z,279
2014-09-18T12:50:03.141Z,290
2014-09-18T12:58:03.749Z,301
2014-09-18T13:05:04.311Z,314
2014-09-18T13:14:04.953Z,326
2014-09-18T13:21:05.511Z,357
2014-09-18T13:28:06.057Z,473
2014-09-18T13:37:06.731Z,516
2014-09-18T13:44:07.276Z,546
2014-09-18T13:53:07.933Z,590
2014-09-18T14:01:08.543Z,614
2014-09-18T14:09:09.152Z,639
2014-09-18T14:17:09.761Z,660
2014-09-18T14:25:10.370Z,672
2014-09-18T14:34:11.027Z,686
2014-09-18T14:40:11.524Z,693
2014-09-18T14:48:12.132Z,701
2014-09-18T14:54:12.644Z,704
2014-09-18T15:02:13.253Z,705
2014-09-18T15:09:13.798Z,707
2014-09-18T15:16:14.358Z,707
2014-09-18T15:24:14.967Z,686
2014-09-18T15:31:15.528Z,702
2014-09-18T15:39:16.138Z,702
2014-09-18T15:46:16.697Z,691
2014-09-18T15:54:17.306Z,569
2014-09-18T16:03:17.964Z,276
2014-09-18T16:10:18.509Z,258
2014-09-18T16:19:19.441Z,231
2014-09-18T16:27:20.113Z,212
2014-09-18T16:35:20.718Z,194
2014-09-18T16:43:21.330Z,171
2014-09-18T16:51:21.940Z,146
2014-09-18T16:58:22.500Z,124
2014-09-18T17:08:23.206Z,85
2014-09-18T17:17:23.865Z,56
2014-09-18T17:24:24.425Z,32
2014-09-18T17:33:25.083Z,17
2014-09-18T17:41:25.692Z,6
2014-09-18T17:48:26.240Z,0
2014-09-18T17:55:26.801Z,0
2014-09-18T18:05:27.507Z,0
2014-09-18T18:12:28.068Z,0
2014-09-18T18:18:28.564Z,0
2014-09-18T18:26:29.173Z,0
2014-09-18T18:35:29.830Z,0
2014-09-18T18:43:30.441Z,316
2014-09-18T18:50:31.000Z,302
2014-09-18T18:58:39.969Z,314
2014-09-18T19:04:40.466Z,310
2014-09-18T19:10:40.976Z,306
2014-09-18T19:19:41.634Z,307
2014-09-18T19:28:42.292Z,301
2014-09-18T19:33:42.755Z,303
2014-09-18T19:42:43.413Z,302
2014-09-18T19:49:43.972Z,302
2014-09-18T19:57:44.567Z,300
2014-09-18T20:05:45.175Z,301
2014-09-18T20:11:45.687Z,301
2014-09-18T20:19:46.296Z,300
2014-09-18T20:28:46.955Z,300
2014-09-18T20:37:47.645Z,301
2014-09-18T20:46:48.301Z,301
2014-09-18T20:54:48.910Z,299
2014-09-18T21:00:49.406Z,301
2014-09-18T21:08:50.015Z,302
2014-09-18T21:14:50.527Z,299
2014-09-18T21:22:51.136Z,299
2014-09-18T21:30:51.747Z,301
2014-09-18T21:38:52.354Z,299
2014-09-18T21:45:52.899Z,301
2014-09-18T21:53:53.523Z,302
2014-09-18T22:01:54.133Z,300
2014-09-18T22:11:54.840Z,301
2014-09-18T22:17:55.351Z,300
2014-09-18T22:24:55.912Z,300
2014-09-18T22:33:56.569Z,300
2014-09-18T22:42:57.226Z,300
2014-09-18T22:50:57.836Z,298
2014-09-18T22:57:58.396Z,300
2014-09-18T23:04:58.958Z,297
2014-09-18T23:12:59.566Z,296
2014-09-18T23:22:14.507Z,0
2014-09-18T23:30:15.116Z,0
2014-09-18T23:39:15.775Z,0
2014-09-18T23:46:16.318Z,0
2014-09-18T23:55:16.992Z,0
